Terminal Aerodrome Forecast
Issued by NWS

Home | Current Version | Previous Version | Text Only | Print | Product List | Glossary On
Versions: 1 2 3 4 5 6 7 8 9 10 11 12 13 14
000
FTUS45 KABQ 241130
TAFGUP
TAF
KGUP 241130Z 2412/2512 26011KT P6SM SCT070
     FM241600 26015G25KT P6SM FEW070
     FM242000 28020G28KT P6SM SKC
     FM250100 30010KT P6SM SKC
     FM250300 VRB03KT P6SM SKC=

USA.gov is the U.S. government's official web portal to all federal, state and local government web resources and services.